Time;durP1;ratioP1;P1;durP2;ratioP2;P2;SDS_P1;SDS_P2;PMS_P1;PMS_P2;Temp;Humidity;BMP_temperature;BMP_pressure;BME280_temperature;BME280_humidity;BME280_pressure;Samples;Min_cycle;Max_cycle;Signal;HPM_P1;HPM_P2
2023/07/28 00:02:21;;;;;;;1.70;1.60;;;;;;;16.04;84.12;99666.56;6273718;28;20098;-71
2023/07/28 00:05:21;;;;;;;3.47;1.60;;;;;;;16.09;82.07;99673.09;6272417;28;20053;-71
2023/07/28 00:08:22;;;;;;;2.72;1.08;;;;;;;16.10;81.01;99674.75;6272432;28;20045;-72
2023/07/28 00:11:23;;;;;;;2.42;1.35;;;;;;;16.11;80.90;99670.31;6272536;28;20091;-72
2023/07/28 00:14:25;;;;;;;2.25;1.60;;;;;;;16.03;81.74;99667.56;6273316;28;20136;-71
2023/07/28 00:17:26;;;;;;;1.88;1.60;;;;;;;16.02;83.10;99676.41;6273457;28;20103;-71
2023/07/28 00:20:27;;;;;;;3.17;1.67;;;;;;;15.98;83.61;99675.88;6273410;28;20064;-70
2023/07/28 00:23:31;;;;;;;2.50;1.60;;;;;;;15.95;85.56;99670.88;6272529;28;20045;-71
2023/07/28 00:26:31;;;;;;;1.95;1.60;;;;;;;15.97;87.73;99671.56;6255889;28;20056;-71
2023/07/28 00:29:32;;;;;;;2.42;1.45;;;;;;;15.95;86.18;99670.03;6247050;28;20049;-71
2023/07/28 00:32:33;;;;;;;1.60;1.50;;;;;;;15.87;86.82;99673.34;6247260;28;20460;-72
2023/07/28 00:35:34;;;;;;;2.47;1.70;;;;;;;15.80;87.56;99673.06;6246999;28;20049;-71
2023/07/28 00:38:37;;;;;;;4.20;1.65;;;;;;;15.80;87.13;99667.81;6260158;28;20385;-71
2023/07/28 00:41:38;;;;;;;1.77;1.50;;;;;;;15.79;88.75;99668.75;6272723;28;20049;-71
2023/07/28 00:44:38;;;;;;;2.17;1.60;;;;;;;15.71;88.68;99658.91;6272246;28;20056;-71
2023/07/28 00:47:40;;;;;;;2.58;1.65;;;;;;;15.70;90.41;99661.66;6271213;28;20068;-72
2023/07/28 00:50:47;;;;;;;1.95;1.60;;;;;;;15.72;88.48;99667.66;6271747;28;20048;-71
2023/07/28 00:53:48;;;;;;;3.28;1.95;;;;;;;15.71;90.65;99663.34;6272597;28;20080;-71
2023/07/28 00:56:49;;;;;;;2.10;1.70;;;;;;;15.69;91.00;99658.22;6271448;28;20081;-71
2023/07/28 00:59:52;;;;;;;3.67;1.70;;;;;;;15.69;91.99;99655.59;6272187;28;20388;-71
2023/07/28 01:02:53;;;;;;;2.25;1.50;;;;;;;15.65;91.04;99653.38;6270955;28;20544;-71
2023/07/28 01:06:28;;;;;;;2.67;1.88;;;;;;;15.58;89.50;99657.50;6271133;28;20055;-71
2023/07/28 01:09:38;;;;;;;1.90;1.70;;;;;;;15.57;88.64;99654.03;6271208;28;20041;-71
2023/07/28 01:12:39;;;;;;;2.83;2.13;;;;;;;15.58;88.56;99662.75;6270929;28;20126;-71
2023/07/28 01:15:39;;;;;;;2.28;1.92;;;;;;;15.64;87.01;99654.31;6271945;28;20051;-71
2023/07/28 01:18:40;;;;;;;5.13;2.00;;;;;;;15.63;87.30;99650.03;6270743;28;20049;-70
2023/07/28 01:21:43;;;;;;;2.30;2.00;;;;;;;15.71;86.75;99655.47;6270829;28;20057;-71
2023/07/28 01:25:23;;;;;;;2.83;2.08;;;;;;;15.69;86.89;99655.59;6272528;28;20059;-70
2023/07/28 01:28:24;;;;;;;5.32;1.75;;;;;;;15.53;88.10;99650.03;6271836;28;20436;-70
2023/07/28 01:31:25;;;;;;;3.00;1.83;;;;;;;15.46;88.17;99652.38;6270469;28;20055;-71
2023/07/28 01:34:25;;;;;;;2.20;1.80;;;;;;;15.42;89.04;99650.97;6272040;28;20421;-71
2023/07/28 01:37:26;;;;;;;3.60;2.05;;;;;;;15.45;88.22;99647.22;6270554;28;20056;-71
2023/07/28 01:40:27;;;;;;;3.15;2.20;;;;;;;15.41;88.47;99643.22;6270415;28;20080;-71
2023/07/28 01:43:27;;;;;;;2.40;1.83;;;;;;;15.37;89.35;99641.81;6270446;28;20049;-72
2023/07/28 01:46:28;;;;;;;3.50;2.13;;;;;;;15.32;90.15;99645.69;6271503;28;20075;-72
2023/07/28 01:49:29;;;;;;;2.67;1.90;;;;;;;15.36;90.12;99643.63;6269954;28;20049;-71
2023/07/28 01:52:29;;;;;;;7.22;2.22;;;;;;;15.36;90.23;99634.88;6270377;28;20390;-71
2023/07/28 01:55:30;;;;;;;2.42;2.10;;;;;;;15.34;90.70;99642.06;6273720;28;20052;-71
2023/07/28 01:58:31;;;;;;;3.13;2.08;;;;;;;15.28;91.56;99644.28;6275152;28;20045;-71
2023/07/28 02:01:32;;;;;;;2.75;2.10;;;;;;;15.26;92.16;99645.38;6275577;28;20481;-71
2023/07/28 02:04:32;;;;;;;2.75;2.17;;;;;;;15.26;92.43;99646.22;6275207;28;20136;-71
2023/07/28 02:07:35;;;;;;;2.45;2.13;;;;;;;15.19;92.91;99639.81;6275405;28;20444;-72
2023/07/28 02:10:37;;;;;;;3.38;2.45;;;;;;;15.14;92.40;99636.75;6276343;28;20484;-71
2023/07/28 02:13:37;;;;;;;4.05;2.67;;;;;;;15.11;92.33;99635.25;6276237;28;20056;-70
2023/07/28 02:16:38;;;;;;;3.53;2.30;;;;;;;15.04;92.43;99636.72;6276113;28;20518;-71
2023/07/28 02:19:42;;;;;;;6.10;2.42;;;;;;;15.03;92.11;99648.22;6274903;28;20098;-71
2023/07/28 02:22:43;;;;;;;3.53;2.28;;;;;;;15.06;92.82;99652.38;6275068;28;20049;-71
2023/07/28 02:25:44;;;;;;;3.23;2.20;;;;;;;15.01;92.82;99650.13;6276007;28;20140;-71
2023/07/28 02:28:44;;;;;;;4.95;2.47;;;;;;;14.91;93.48;99650.09;6276001;28;20052;-71
2023/07/28 02:31:45;;;;;;;2.75;2.20;;;;;;;14.84;93.71;99654.19;6275866;28;20093;-71
2023/07/28 02:34:46;;;;;;;4.50;2.17;;;;;;;14.96;93.17;99646.22;6276100;28;20057;-70
2023/07/28 02:37:47;;;;;;;5.22;2.25;;;;;;;14.91;93.19;99641.38;6274444;28;20056;-70
2023/07/28 02:40:47;;;;;;;2.60;2.08;;;;;;;14.90;93.41;99648.41;6275588;28;20052;-69
2023/07/28 02:43:50;;;;;;;3.72;2.40;;;;;;;14.84;92.71;99651.56;6274609;28;20162;-68
2023/07/28 02:46:52;;;;;;;3.20;2.50;;;;;;;14.96;92.22;99640.97;6275329;28;20049;-68
2023/07/28 02:49:53;;;;;;;2.63;2.00;;;;;;;15.02;91.61;99645.72;6275251;28;20099;-70
2023/07/28 02:52:53;;;;;;;4.70;1.92;;;;;;;15.06;91.47;99653.19;6307648;28;20049;-68
2023/07/28 02:55:56;;;;;;;3.13;1.85;;;;;;;15.12;90.88;99649.22;6274115;28;20535;-69
2023/07/28 02:58:57;;;;;;;4.40;2.22;;;;;;;15.13;90.21;99657.91;6273774;28;20126;-69
2023/07/28 03:01:58;;;;;;;2.90;2.22;;;;;;;15.08;90.24;99651.25;6274130;28;20052;-69
2023/07/28 03:04:58;;;;;;;5.20;2.22;;;;;;;15.21;90.02;99650.19;6274014;28;20060;-68
2023/07/28 03:07:59;;;;;;;4.15;2.35;;;;;;;15.29;89.44;99656.44;6274090;28;20126;-68
2023/07/28 03:11:02;;;;;;;2.67;2.13;;;;;;;15.19;90.58;99665.25;6273832;28;20055;-69
2023/07/28 03:14:03;;;;;;;3.33;2.13;;;;;;;15.03;91.76;99656.09;6273603;28;20501;-68
2023/07/28 03:17:04;;;;;;;5.18;2.08;;;;;;;15.05;92.31;99661.19;6274921;28;20057;-68
2023/07/28 03:20:05;;;;;;;2.90;2.08;;;;;;;14.88;93.18;99673.16;6266336;28;20528;-68
2023/07/28 03:23:05;;;;;;;4.32;2.50;;;;;;;14.83;94.03;99667.47;6255154;28;20590;-69
2023/07/28 03:26:06;;;;;;;3.55;2.15;;;;;;;14.92;94.09;99671.91;6272854;28;20075;-68
2023/07/28 03:29:07;;;;;;;3.78;2.05;;;;;;;14.92;93.43;99661.41;6273398;28;20493;-69
2023/07/28 03:32:10;;;;;;;3.88;2.42;;;;;;;15.05;93.22;99667.31;6274462;28;20182;-69
2023/07/28 03:35:11;;;;;;;3.72;2.03;;;;;;;14.97;93.33;99672.38;6257344;28;20470;-68
2023/07/28 03:38:12;;;;;;;2.25;1.88;;;;;;;14.93;94.18;99683.25;6248318;28;20103;-68
2023/07/28 03:41:13;;;;;;;10.13;2.50;;;;;;;14.99;94.23;99688.84;6262899;28;20053;-67
2023/07/28 03:44:16;;;;;;;2.90;2.25;;;;;;;14.93;94.27;99684.09;6273142;28;20095;-68
2023/07/28 03:47:16;;;;;;;4.55;2.42;;;;;;;14.93;95.40;99691.13;6273767;28;20140;-69
2023/07/28 03:50:17;;;;;;;3.22;2.08;;;;;;;14.91;95.05;99684.22;6272909;28;20094;-70
2023/07/28 03:53:18;;;;;;;3.72;2.53;;;;;;;14.85;95.46;99681.31;6272814;28;20132;-72
2023/07/28 03:56:19;;;;;;;3.90;2.53;;;;;;;14.74;96.46;99687.44;6273964;28;20122;-71
2023/07/28 03:59:19;;;;;;;11.35;2.58;;;;;;;14.78;96.72;99694.09;6272255;28;20512;-71
2023/07/28 04:02:20;;;;;;;5.05;2.72;;;;;;;14.79;96.73;99687.91;6272600;28;20416;-71
2023/07/28 04:05:21;;;;;;;5.43;2.65;;;;;;;14.90;96.76;99682.56;6268176;28;20489;-72
2023/07/28 04:08:22;;;;;;;2.53;2.13;;;;;;;14.98;96.83;99691.59;6272269;28;20473;-70
2023/07/28 04:11:22;;;;;;;4.20;2.72;;;;;;;14.91;97.14;99694.75;6262592;28;20045;-71
2023/07/28 04:14:25;;;;;;;6.80;2.63;;;;;;;14.84;98.04;99683.06;6266686;28;20049;-71
2023/07/28 04:17:29;;;;;;;4.30;2.17;;;;;;;14.76;98.81;99680.25;6263157;28;20134;-71
2023/07/28 04:20:30;;;;;;;5.07;2.50;;;;;;;14.84;99.01;99680.44;6247068;28;20050;-72
2023/07/28 04:23:31;;;;;;;3.65;2.60;;;;;;;14.93;97.85;99684.09;6268055;28;20084;-71
2023/07/28 04:26:31;;;;;;;2.88;2.22;;;;;;;14.84;98.27;99679.63;6261415;28;20081;-71
2023/07/28 04:29:32;;;;;;;5.07;2.30;;;;;;;15.06;97.68;99671.56;6248454;28;20136;-71
2023/07/28 04:32:33;;;;;;;5.45;2.60;;;;;;;15.06;98.28;99674.22;6246720;28;20053;-70
2023/07/28 04:35:34;;;;;;;12.02;2.83;;;;;;;15.19;98.24;99681.03;6247298;28;20057;-71
2023/07/28 04:38:37;;;;;;;4.38;2.38;;;;;;;15.26;97.64;99676.94;6248079;28;20128;-71
2023/07/28 04:41:38;;;;;;;2.65;1.88;;;;;;;15.38;96.78;99680.25;6247089;28;20058;-71
2023/07/28 04:44:40;;;;;;;4.35;2.47;;;;;;;15.40;96.80;99678.34;6248225;28;20049;-70
2023/07/28 04:47:41;;;;;;;3.13;2.37;;;;;;;15.41;96.69;99680.00;6245373;28;20518;-71
2023/07/28 04:50:41;;;;;;;2.50;1.98;;;;;;;15.48;96.13;99681.97;6250173;28;20045;-71
2023/07/28 04:53:42;;;;;;;3.50;1.98;;;;;;;15.55;95.73;99689.34;6247902;28;20053;-71
2023/07/28 04:56:43;;;;;;;3.38;2.40;;;;;;;15.63;95.68;99679.81;6253009;28;20045;-73
2023/07/28 04:59:43;;;;;;;3.58;2.28;;;;;;;15.56;96.16;99685.72;6259303;28;20049;-71
2023/07/28 05:02:44;;;;;;;4.07;2.50;;;;;;;15.55;95.84;99678.81;6266121;28;20042;-71
2023/07/28 05:05:45;;;;;;;3.33;2.22;;;;;;;15.52;96.42;99677.25;6251708;28;20045;-70
2023/07/28 05:08:46;;;;;;;3.85;2.20;;;;;;;15.71;95.75;99679.13;6262123;28;20049;-71
2023/07/28 05:11:46;;;;;;;3.58;2.38;;;;;;;15.95;95.25;99683.19;6272275;28;20060;-70
2023/07/28 05:14:49;;;;;;;4.85;2.22;;;;;;;16.18;93.36;99683.75;6270931;28;20045;-70
2023/07/28 05:17:50;;;;;;;3.88;2.45;;;;;;;16.37;93.08;99680.28;6272084;28;20052;-71
2023/07/28 05:20:53;;;;;;;2.75;2.15;;;;;;;16.42;91.00;99668.38;6270776;28;20151;-72
2023/07/28 05:23:54;;;;;;;2.38;1.95;;;;;;;16.50;91.04;99667.66;6270908;28;20059;-71
2023/07/28 05:26:54;;;;;;;7.97;2.25;;;;;;;16.82;89.02;99667.34;6271808;28;20053;-71
2023/07/28 05:29:55;;;;;;;6.50;2.42;;;;;;;17.04;88.61;99667.97;6271294;28;20048;-71
2023/07/28 05:45:14;;;;;;;3.35;2.22;;;;;;;17.45;86.09;99661.38;6375505;27;20397;-69
2023/07/28 05:48:15;;;;;;;3.53;2.40;;;;;;;17.49;84.02;99672.47;6391943;27;20093;-70
2023/07/28 05:51:18;;;;;;;2.92;1.92;;;;;;;17.66;82.49;99660.28;6357689;27;20479;-70
2023/07/28 05:54:18;;;;;;;2.67;1.85;;;;;;;17.81;80.90;99665.88;6368540;27;20090;-69
2023/07/28 05:57:21;;;;;;;2.85;2.08;;;;;;;17.99;80.30;99671.22;6368931;27;20055;-70
2023/07/28 06:00:22;;;;;;;4.32;2.05;;;;;;;17.88;81.87;99686.28;6355195;28;20047;-70
2023/07/28 06:03:23;;;;;;;2.83;2.00;;;;;;;17.98;81.25;99675.66;6368594;27;20054;-70
2023/07/28 06:06:26;;;;;;;2.53;1.92;;;;;;;18.36;80.82;99676.31;6368049;28;20043;-70
2023/07/28 06:09:28;;;;;;;4.85;2.13;;;;;;;18.73;77.36;99678.72;6350847;27;20131;-70
2023/07/28 06:12:29;;;;;;;4.93;2.23;;;;;;;19.15;75.92;99684.28;6365924;27;20130;-70
2023/07/28 06:15:34;;;;;;;4.77;2.10;;;;;;;19.26;75.95;99689.31;6367315;28;20137;-70
2023/07/28 06:18:35;;;;;;;4.13;2.10;;;;;;;18.95;75.48;99683.69;6368317;27;20128;-70
2023/07/28 06:21:36;;;;;;;5.55;2.30;;;;;;;19.20;75.83;99688.13;6367213;28;20059;-70
2023/07/28 06:24:38;;;;;;;2.30;1.98;;;;;;;19.93;73.58;99676.13;6366945;28;20397;-69
2023/07/28 06:27:39;;;;;;;4.22;2.20;;;;;;;20.03;72.10;99682.09;6347670;27;20079;-70
2023/07/28 06:30:40;;;;;;;2.85;1.85;;;;;;;19.95;71.57;99684.72;6357282;27;20069;-70
2023/07/28 06:33:41;;;;;;;2.83;1.77;;;;;;;20.04;70.37;99678.47;6366885;27;20054;-70
2023/07/28 06:36:44;;;;;;;3.13;2.10;;;;;;;20.03;69.80;99665.38;6364669;28;20054;-70
2023/07/28 06:39:45;;;;;;;2.42;1.80;;;;;;;20.20;69.66;99659.13;6342668;28;20047;-70
2023/07/28 06:42:46;;;;;;;3.60;2.30;;;;;;;20.38;69.61;99660.75;6342301;28;20148;-70
2023/07/28 06:45:50;;;;;;;4.27;2.00;;;;;;;20.32;68.13;99672.84;6338960;27;20491;-70
2023/07/28 06:48:50;;;;;;;3.58;1.90;;;;;;;20.47;69.38;99671.19;6337761;28;20503;-70
2023/07/28 06:51:51;;;;;;;2.90;1.87;;;;;;;20.67;66.20;99684.09;6345516;28;20058;-70
2023/07/28 06:54:54;;;;;;;4.53;1.87;;;;;;;20.44;66.32;99681.28;6349365;28;20058;-70
2023/07/28 06:57:54;;;;;;;3.47;1.92;;;;;;;20.68;67.51;99691.09;6349247;28;20101;-70
2023/07/28 07:00:56;;;;;;;2.10;1.67;;;;;;;20.70;65.93;99699.69;6350333;28;20055;-70
2023/07/28 07:03:57;;;;;;;;;;;;;;;20.87;67.81;99703.97;6350802;28;20043;-70
2023/07/28 07:06:58;;;;;;;2.08;1.52;;;;;;;20.89;68.52;99701.97;6338990;28;20275;-70
2023/07/28 07:09:59;;;;;;;3.47;1.80;;;;;;;20.83;65.57;99697.34;6325958;28;20044;-70
2023/07/28 07:12:59;;;;;;;2.38;1.50;;;;;;;20.68;64.30;99701.69;6325470;28;20087;-70
2023/07/28 07:16:00;;;;;;;1.53;1.37;;;;;;;20.98;65.17;99720.50;6323694;28;20060;-70
2023/07/28 07:19:01;;;;;;;2.03;1.40;;;;;;;20.88;64.74;99718.06;6323422;28;20052;-70
2023/07/28 07:22:02;;;;;;;2.43;1.67;;;;;;;20.96;64.08;99718.06;6323533;28;20048;-70
2023/07/28 07:25:04;;;;;;;3.75;1.67;;;;;;;20.99;65.11;99716.88;6324498;28;20388;-70
2023/07/28 07:28:06;;;;;;;1.50;1.30;;;;;;;20.96;63.90;99727.81;6324693;28;20047;-70
2023/07/28 07:31:15;;;;;;;1.52;1.33;;;;;;;21.09;64.29;99726.31;6323120;28;20101;-69
2023/07/28 07:34:16;;;;;;;2.95;1.52;;;;;;;21.27;62.74;99723.44;6324433;28;20089;-70
2023/07/28 07:37:17;;;;;;;1.73;1.43;;;;;;;21.45;62.47;99730.34;6339854;28;20052;-70
2023/07/28 07:40:18;;;;;;;3.13;1.30;;;;;;;21.40;63.05;99722.88;6349643;28;20043;-69
2023/07/28 07:43:20;;;;;;;2.38;1.60;;;;;;;21.77;63.97;99720.59;6347975;28;20079;-71
2023/07/28 07:46:21;;;;;;;3.42;1.63;;;;;;;22.25;63.09;99716.00;6348053;28;20083;-70
2023/07/28 07:49:23;;;;;;;3.67;1.37;;;;;;;22.32;60.88;99722.25;6349394;28;20501;-70
2023/07/28 07:52:24;;;;;;;1.30;1.10;;;;;;;22.06;59.11;99730.56;6348941;28;20291;-70
2023/07/28 07:55:25;;;;;;;2.03;1.27;;;;;;;22.25;56.77;99722.13;6348619;27;20136;-70
2023/07/28 07:58:28;;;;;;;1.70;1.27;;;;;;;22.33;57.51;99714.09;6347501;28;20051;-71
2023/07/28 08:01:29;;;;;;;2.15;1.38;;;;;;;23.41;57.60;99719.22;6349007;28;20054;-70
2023/07/28 08:04:31;;;;;;;1.60;1.47;;;;;;;23.58;55.28;99709.22;6348866;28;20075;-72
2023/07/28 08:07:32;;;;;;;2.05;1.50;;;;;;;23.29;55.13;99716.22;6349048;28;20539;-70
2023/07/28 08:10:33;;;;;;;2.93;1.47;;;;;;;23.64;53.96;99721.75;6345097;28;20047;-71
2023/07/28 08:13:34;;;;;;;3.08;1.25;;;;;;;23.77;54.02;99718.47;6348233;27;20047;-70
2023/07/28 08:16:35;;;;;;;7.27;1.50;;;;;;;23.70;54.05;99719.19;6347639;28;20043;-70
2023/07/28 08:19:35;;;;;;;2.60;1.00;;;;;;;23.60;54.43;99709.84;6346473;28;20154;-71
2023/07/28 08:22:38;;;;;;;3.83;1.30;;;;;;;23.31;53.71;99704.38;6345339;28;20051;-71
2023/07/28 08:25:39;;;;;;;4.45;1.67;;;;;;;23.43;54.81;99701.22;6346632;28;20510;-71
2023/07/28 08:28:42;;;;;;;3.40;1.37;;;;;;;23.23;53.88;99704.47;6348360;28;20048;-70
2023/07/28 08:31:43;;;;;;;1.50;1.25;;;;;;;23.27;53.67;99694.28;6348142;28;20044;-71
2023/07/28 08:34:43;;;;;;;2.80;1.37;;;;;;;23.43;54.80;99680.78;6347142;28;20090;-71
2023/07/28 08:37:44;;;;;;;1.50;1.30;;;;;;;23.67;54.16;99681.44;6346613;28;20052;-71
2023/07/28 08:40:45;;;;;;;1.13;0.97;;;;;;;23.88;52.37;99686.00;6346939;28;20052;-71
2023/07/28 08:43:50;;;;;;;1.73;1.00;;;;;;;23.73;50.34;99686.03;6347832;28;20056;-71
2023/07/28 08:46:54;;;;;;;1.40;1.30;;;;;;;23.61;50.79;99685.69;6348045;28;20051;-71
2023/07/28 08:49:54;;;;;;;1.25;1.05;;;;;;;23.57;51.47;99695.06;6347867;28;20087;-71
2023/07/28 08:52:56;;;;;;;2.37;1.43;;;;;;;23.70;51.73;99687.22;6345859;28;20044;-71
2023/07/28 08:55:59;;;;;;;2.25;1.38;;;;;;;24.49;51.44;99693.53;6346703;28;20055;-71
2023/07/28 08:59:00;;;;;;;2.22;1.40;;;;;;;24.34;50.26;99685.63;6347893;28;20059;-71
2023/07/28 09:02:01;;;;;;;1.70;1.10;;;;;;;24.29;50.42;99682.72;6339952;28;20044;-71
2023/07/28 09:05:04;;;;;;;2.10;1.40;;;;;;;24.34;51.48;99677.63;6322231;28;20102;-71
2023/07/28 09:08:04;;;;;;;1.55;1.15;;;;;;;24.15;51.42;99676.41;6355580;27;20044;-71
2023/07/28 09:11:06;;;;;;;3.73;1.20;;;;;;;23.96;50.32;99677.88;6340588;28;20044;-71
2023/07/28 09:14:11;;;;;;;2.47;1.20;;;;;;;23.95;51.00;99678.91;6342014;28;20388;-71
2023/07/28 09:17:16;;;;;;;2.05;1.27;;;;;;;24.48;49.20;99667.88;6343508;27;20410;-71
2023/07/28 09:20:17;;;;;;;1.17;0.98;;;;;;;24.95;48.99;99671.72;6337348;28;20048;-71
2023/07/28 09:23:28;;;;;;;1.65;1.30;;;;;;;24.67;48.64;99669.09;6322007;28;20044;-71
2023/07/28 09:26:45;;;;;;;1.40;0.98;;;;;;;24.97;46.68;99677.69;6321906;28;20483;-71
2023/07/28 09:29:51;;;;;;;0.70;0.68;;;;;;;25.37;45.09;99675.25;6342201;28;20088;-70
2023/07/28 09:32:54;;;;;;;1.50;0.93;;;;;;;25.53;46.24;99668.72;6345969;28;20047;-72
2023/07/28 09:35:55;;;;;;;1.10;1.00;;;;;;;25.80;45.80;99668.81;6345256;28;20064;-70
2023/07/28 09:38:56;;;;;;;1.40;0.93;;;;;;;25.63;46.64;99661.16;6347196;28;20052;-71
2023/07/28 09:41:59;;;;;;;;;;;;;;;25.85;45.31;99663.69;6346231;28;20047;-71
2023/07/28 09:45:04;;;;;;;1.73;0.93;;;;;;;26.24;44.29;99652.25;6345928;28;19923;-71
2023/07/28 09:48:11;;;;;;;1.52;1.20;;;;;;;26.00;43.91;99660.84;6347000;28;20055;-70
2023/07/28 09:51:19;;;;;;;1.35;1.00;;;;;;;25.52;45.24;99646.53;6345743;28;20054;-71
2023/07/28 09:54:29;;;;;;;1.35;0.90;;;;;;;25.18;43.82;99649.25;6345664;28;20055;-70
2023/07/28 09:57:36;;;;;;;6.45;1.02;;;;;;;25.12;45.09;99642.84;6344252;28;20047;-70
2023/07/28 10:00:38;;;;;;;2.13;1.17;;;;;;;25.24;45.26;99635.16;6387654;27;20430;-71
2023/07/28 10:03:39;;;;;;;1.90;1.02;;;;;;;25.25;44.33;99645.63;6340280;28;20384;-70
2023/07/28 10:06:40;;;;;;;1.10;1.00;;;;;;;24.91;45.19;99646.44;6322888;28;20048;-70
2023/07/28 10:09:44;;;;;;;1.20;1.05;;;;;;;24.82;44.95;99639.66;6329864;28;20062;-70
2023/07/28 10:12:51;;;;;;;2.33;1.20;;;;;;;25.39;45.35;99637.66;6345488;28;20050;-71
2023/07/28 10:15:51;;;;;;;2.42;1.42;;;;;;;25.56;43.96;99641.63;6343342;28;20051;-71
2023/07/28 10:18:55;;;;;;;0.73;0.73;;;;;;;25.63;44.00;99634.44;6347106;28;20054;-71
2023/07/28 10:36:43;;;;;;;1.33;1.02;;;;;;;27.03;40.49;99615.69;6292989;27;20413;-71
2023/07/28 10:39:45;;;;;;;1.40;0.95;;;;;;;26.85;40.95;99612.88;6314678;28;20052;-71
2023/07/28 10:42:45;;;;;;;1.73;1.17;;;;;;;27.40;40.64;99620.50;6283151;28;20098;-71
2023/07/28 10:45:46;;;;;;;0.97;0.83;;;;;;;27.28;39.95;99620.34;6282325;28;20057;-71
2023/07/28 10:48:49;;;;;;;1.95;1.00;;;;;;;27.42;40.16;99613.91;6282467;28;20494;-71
2023/07/28 10:51:50;;;;;;;1.80;1.10;;;;;;;27.52;41.20;99606.22;6314080;28;20055;-71
2023/07/28 10:54:53;;;;;;;2.83;1.10;;;;;;;26.71;42.25;99604.91;6283103;28;20056;-71
2023/07/28 10:57:58;;;;;;;1.10;0.98;;;;;;;26.81;41.56;99600.94;6290606;28;20049;-71
2023/07/28 11:00:58;;;;;;;2.08;1.20;;;;;;;27.11;42.11;99603.94;6285420;28;20049;-71
2023/07/28 11:04:19;;;;;;;2.00;1.07;;;;;;;27.73;41.30;99591.66;6290448;28;20048;-71
2023/07/28 11:07:20;;;;;;;2.90;1.23;;;;;;;27.89;40.32;99584.97;6289807;28;20776;-71
2023/07/28 11:10:21;;;;;;;1.23;0.90;;;;;;;27.53;40.41;99589.13;6300396;28;20281;-71
2023/07/28 11:13:25;;;;;;;4.57;1.63;;;;;;;28.05;40.28;99577.44;6271929;28;20053;-70
2023/07/28 11:16:25;;;;;;;1.20;1.10;;;;;;;27.97;40.88;99577.72;6288344;28;20048;-72
2023/07/28 11:19:26;;;;;;;1.23;1.10;;;;;;;27.78;39.52;99582.13;6292313;28;20477;-71
2023/07/28 11:22:27;;;;;;;2.03;1.17;;;;;;;28.00;41.67;99578.06;6292231;28;20285;-71
2023/07/28 11:25:29;;;;;;;1.83;1.05;;;;;;;28.43;40.08;99574.59;6292317;28;20313;-71
2023/07/28 11:28:31;;;;;;;0.88;0.88;;;;;;;28.64;40.27;99570.69;6292156;28;20481;-71
2023/07/28 11:31:33;;;;;;;;;;;;;;;28.47;37.02;99562.38;6291407;28;20060;-71
2023/07/28 11:34:35;;;;;;;;;;;;;;;28.77;40.28;99566.22;6291997;28;19921;-71
2023/07/28 11:37:38;;;;;;;1.45;0.93;;;;;;;28.71;38.83;99565.25;6266882;28;19921;-71
2023/07/28 11:40:38;;;;;;;1.63;0.90;;;;;;;28.71;37.35;99549.16;6266210;28;20053;-71
2023/07/28 11:43:46;;;;;;;1.48;1.00;;;;;;;28.73;37.22;99550.56;6250620;28;20037;-71
2023/07/28 11:46:47;;;;;;;0.70;0.70;;;;;;;28.88;36.91;99546.66;6250737;28;20132;-71
2023/07/28 11:49:48;;;;;;;0.70;0.70;;;;;;;28.84;36.34;99551.66;6271367;28;20055;-71
2023/07/28 11:52:49;;;;;;;1.55;1.00;;;;;;;28.59;36.25;99551.75;6265812;28;20524;-71
2023/07/28 11:55:50;;;;;;;1.73;0.95;;;;;;;28.44;36.61;99549.41;6273873;28;20053;-70
2023/07/28 11:58:52;;;;;;;1.02;0.80;;;;;;;28.16;37.64;99552.56;6274042;28;20458;-71
2023/07/28 12:01:54;;;;;;;1.67;0.82;;;;;;;28.58;36.55;99544.75;6272901;28;20052;-71
2023/07/28 12:04:57;;;;;;;1.58;0.73;;;;;;;28.33;36.87;99545.59;6273729;28;20052;-71
2023/07/28 12:07:59;;;;;;;1.63;1.02;;;;;;;28.51;39.01;99544.81;6273626;28;20437;-72
2023/07/28 12:10:59;;;;;;;1.13;0.88;;;;;;;29.01;37.22;99542.97;6274786;28;20463;-72
2023/07/28 12:14:02;;;;;;;1.85;0.90;;;;;;;29.14;36.65;99548.22;6273564;28;20048;-72
2023/07/28 12:17:11;;;;;;;1.02;0.85;;;;;;;28.50;37.48;99548.56;6273698;28;20053;-71
2023/07/28 12:20:14;;;;;;;1.52;0.85;;;;;;;28.27;36.56;99542.97;6274786;28;20052;-71
2023/07/28 12:23:19;;;;;;;1.10;0.73;;;;;;;27.96;37.66;99544.69;6273236;28;20057;-71
2023/07/28 12:26:19;;;;;;;1.38;0.75;;;;;;;29.07;38.85;99542.88;6265958;28;20072;-71
2023/07/28 12:29:20;;;;;;;1.90;1.10;;;;;;;29.04;36.05;99545.22;6269392;28;20492;-72
2023/07/28 12:32:24;;;;;;;1.02;0.80;;;;;;;28.33;36.00;99534.03;6258161;28;20136;-71
2023/07/28 12:35:30;;;;;;;1.70;1.00;;;;;;;28.49;37.62;99538.00;6259027;28;20075;-71
2023/07/28 12:38:31;;;;;;;1.80;0.77;;;;;;;28.99;37.33;99529.78;6273005;28;20461;-72
2023/07/28 12:41:34;;;;;;;2.30;0.70;;;;;;;28.62;36.97;99527.16;6305652;28;20052;-71
2023/07/28 12:44:41;;;;;;;1.35;0.82;;;;;;;28.37;36.12;99513.78;6289531;28;20056;-71
2023/07/28 12:47:42;;;;;;;2.75;1.10;;;;;;;28.58;36.44;99509.88;6272851;28;20111;-71
2023/07/28 12:50:46;;;;;;;1.25;1.10;;;;;;;28.75;36.60;99520.00;6274064;28;20048;-70
2023/07/28 12:53:49;;;;;;;1.85;1.05;;;;;;;28.48;36.32;99510.34;6272633;28;20138;-71
2023/07/28 12:56:59;;;;;;;4.20;1.13;;;;;;;28.19;37.68;99509.22;6273345;28;20049;-71
2023/07/28 13:00:00;;;;;;;1.75;1.05;;;;;;;27.89;37.47;99498.38;6268615;28;20044;-72
2023/07/28 13:03:01;;;;;;;2.50;1.20;;;;;;;28.44;37.41;99509.16;6299687;28;20094;-71
2023/07/28 13:06:02;;;;;;;1.60;1.10;;;;;;;28.21;37.15;99498.25;6263846;28;20045;-72
2023/07/28 13:09:03;;;;;;;1.10;0.93;;;;;;;28.09;38.66;99506.25;6273398;28;20049;-71
2023/07/28 13:12:04;;;;;;;1.42;0.98;;;;;;;27.92;37.40;99504.13;6271899;28;20098;-71
2023/07/28 13:15:06;;;;;;;1.65;0.80;;;;;;;28.19;38.09;99489.63;6257548;28;20123;-71
2023/07/28 13:18:06;;;;;;;;;;;;;;;28.25;38.35;99500.31;6268386;28;20045;-71
2023/07/28 13:21:07;;;;;;;3.47;1.10;;;;;;;28.49;37.92;99487.88;6305405;28;19978;-71
2023/07/28 13:24:08;;;;;;;1.67;1.00;;;;;;;28.71;37.97;99500.84;6284933;28;20052;-71
2023/07/28 13:27:11;;;;;;;1.70;0.82;;;;;;;28.80;37.27;99496.78;6271788;28;20052;-71
2023/07/28 13:30:12;;;;;;;1.25;0.80;;;;;;;28.91;37.82;99495.19;6271542;28;20049;-71
2023/07/28 13:33:12;;;;;;;1.08;0.95;;;;;;;29.04;38.06;99491.53;6255805;28;20061;-71
2023/07/28 13:36:13;;;;;;;2.15;1.00;;;;;;;28.81;35.95;99487.69;6268668;28;20045;-71
2023/07/28 13:39:14;;;;;;;0.70;0.70;;;;;;;28.91;37.82;99495.19;6271615;28;20141;-71
2023/07/28 13:42:15;;;;;;;3.03;0.77;;;;;;;28.73;37.37;99479.94;6271515;28;20064;-72
2023/07/28 13:45:16;;;;;;;1.10;0.73;;;;;;;28.87;36.49;99484.09;6271446;28;20060;-71
2023/07/28 13:48:17;;;;;;;1.10;0.70;;;;;;;28.76;36.75;99468.75;6260592;28;20057;-71
2023/07/28 13:51:18;;;;;;;2.35;1.17;;;;;;;29.00;36.91;99477.72;6247768;28;20046;-71
2023/07/28 13:54:18;;;;;;;2.58;1.13;;;;;;;29.29;36.72;99478.75;6247807;28;20128;-71
2023/07/28 13:57:19;;;;;;;0.75;0.70;;;;;;;29.62;36.42;99472.03;6246802;28;20053;-72
2023/07/28 14:00:22;;;;;;;4.22;1.42;;;;;;;29.66;36.35;99472.41;6246336;28;20099;-71
2023/07/28 14:03:23;;;;;;;4.13;0.93;;;;;;;30.07;37.74;99466.09;6247623;28;20179;-72
2023/07/28 14:06:24;;;;;;;1.25;1.00;;;;;;;29.75;35.46;99472.91;6257015;28;20048;-71
2023/07/28 14:09:24;;;;;;;3.05;1.10;;;;;;;29.31;35.11;99462.44;6272168;28;20084;-71
2023/07/28 14:12:25;;;;;;;1.55;1.20;;;;;;;29.05;36.60;99447.50;6272395;28;20114;-71
2023/07/28 14:15:26;;;;;;;2.92;1.27;;;;;;;28.85;38.49;99458.53;6270118;28;20060;-72
2023/07/28 14:18:28;;;;;;;2.67;1.02;;;;;;;28.52;37.59;99457.09;6257797;28;20393;-71
2023/07/28 14:21:29;;;;;;;1.40;1.02;;;;;;;28.36;36.87;99458.50;6261549;28;20048;-71
2023/07/28 14:24:30;;;;;;;1.80;1.10;;;;;;;28.34;36.70;99447.97;6261134;28;20064;-71
2023/07/28 14:27:31;;;;;;;2.08;1.05;;;;;;;28.36;37.38;99444.28;6260450;28;20053;-71
2023/07/28 14:30:31;;;;;;;2.38;0.98;;;;;;;28.07;36.35;99436.75;6265533;28;20049;-71
2023/07/28 14:33:32;;;;;;;6.20;1.17;;;;;;;28.10;36.10;99424.75;6270657;28;20064;-71
2023/07/28 14:36:34;;;;;;;3.00;1.13;;;;;;;28.30;37.36;99433.38;6271668;28;20144;-71
2023/07/28 14:39:37;;;;;;;1.67;0.93;;;;;;;28.39;37.12;99416.97;6272035;28;20053;-71
2023/07/28 14:42:38;;;;;;;2.05;0.93;;;;;;;28.28;37.77;99416.69;6271749;28;20045;-71
2023/07/28 14:45:39;;;;;;;1.70;1.45;;;;;;;28.49;37.76;99419.94;6270645;28;20045;-71